createdAt,value
2023-02-20T00:00:05.174Z,1.30
2023-02-20T00:01:05.171Z,1.30
2023-02-20T00:02:05.182Z,1.40
2023-02-20T00:03:05.155Z,1.30
2023-02-20T00:04:05.143Z,1.20
2023-02-20T00:05:05.120Z,1.20
2023-02-20T00:06:05.093Z,1.20
2023-02-20T00:07:05.097Z,1.30
2023-02-20T00:08:05.098Z,1.60
2023-02-20T00:09:05.082Z,1.20
2023-02-20T00:10:05.075Z,1.40
2023-02-20T00:11:05.056Z,1.10
2023-02-20T00:12:05.060Z,1.40
2023-02-20T00:13:05.089Z,1.50
2023-02-20T00:14:05.004Z,1.10
2023-02-20T00:15:11.811Z,1.20
2023-02-20T00:16:04.998Z,1.20
2023-02-20T00:17:04.979Z,1.30
2023-02-20T00:18:04.960Z,1.10
2023-02-20T00:19:04.949Z,1.40
2023-02-20T00:20:04.929Z,1.30
2023-02-20T00:21:04.914Z,1.40
2023-02-20T00:22:04.915Z,1.40
2023-02-20T00:23:04.884Z,1.30
2023-02-20T00:24:04.894Z,1.30
2023-02-20T00:25:04.884Z,1.40
2023-02-20T00:26:04.868Z,1.30
2023-02-20T00:27:04.874Z,1.30
2023-02-20T00:28:04.844Z,1.40
2023-02-20T00:29:04.830Z,1.60
2023-02-20T00:30:04.843Z,1.40
2023-02-20T00:31:04.847Z,1.50
2023-02-20T00:32:04.841Z,1.10
2023-02-20T00:33:04.799Z,1.30
2023-02-20T00:34:04.767Z,1.50
2023-02-20T00:35:04.754Z,1.30
2023-02-20T00:36:04.749Z,1.50
2023-02-20T00:37:04.768Z,1.60
2023-02-20T00:38:04.734Z,1.30
2023-02-20T00:39:04.797Z,1.20
2023-02-20T00:40:04.718Z,1.40
2023-02-20T00:41:04.693Z,1.60
2023-02-20T00:42:04.712Z,1.10
2023-02-20T00:43:04.673Z,1.40
2023-02-20T00:44:04.716Z,1.50
2023-02-20T00:45:04.647Z,1.70
2023-02-20T00:46:04.681Z,1.10
2023-02-20T00:47:04.687Z,1.40
2023-02-20T00:48:04.640Z,1.30
2023-02-20T00:49:04.614Z,1.20
2023-02-20T00:50:04.676Z,1.40
2023-02-20T00:51:04.607Z,1.20
2023-02-20T00:52:04.604Z,1.20
2023-02-20T00:53:04.578Z,1.20
2023-02-20T00:54:04.557Z,1.30
2023-02-20T00:55:04.562Z,1.10
2023-02-20T00:56:04.545Z,1.30
2023-02-20T00:57:04.548Z,1.30
2023-02-20T00:58:04.521Z,0.90
2023-02-20T00:59:04.508Z,1.30
2023-02-20T01:00:04.537Z,1.10
2023-02-20T01:01:04.478Z,1.30
2023-02-20T01:02:04.493Z,1.20
2023-02-20T01:03:04.519Z,1.10
2023-02-20T01:04:04.465Z,1.60
2023-02-20T01:05:04.507Z,1.30
2023-02-20T01:06:04.431Z,1.20
2023-02-20T01:07:04.430Z,1.20
2023-02-20T01:08:04.490Z,1.10
2023-02-20T01:09:04.438Z,1.20
2023-02-20T01:10:04.394Z,1.50
2023-02-20T01:11:04.382Z,1.20
2023-02-20T01:12:04.392Z,1.30
2023-02-20T01:13:04.344Z,1.50
2023-02-20T01:14:04.335Z,1.30
2023-02-20T01:15:04.328Z,1.20
2023-02-20T01:16:04.338Z,1.30
2023-02-20T01:17:04.340Z,1.20
2023-02-20T01:18:04.292Z,1.20
2023-02-20T01:19:04.289Z,1.30
2023-02-20T01:20:04.299Z,1.30
2023-02-20T01:21:04.263Z,1.30
2023-02-20T01:22:04.275Z,1.40
2023-02-20T01:23:04.246Z,1.50
2023-02-20T01:24:04.241Z,1.60
2023-02-20T01:25:04.207Z,1.10
2023-02-20T01:26:04.224Z,1.40
2023-02-20T01:27:04.224Z,1.30
2023-02-20T01:28:04.189Z,1.30
2023-02-20T01:29:04.201Z,1.30
2023-02-20T01:30:04.171Z,1.30
2023-02-20T01:31:04.289Z,1.30
2023-02-20T01:32:04.511Z,1.10
2023-02-20T01:33:04.123Z,1.30
2023-02-20T01:34:04.140Z,1.40
2023-02-20T01:35:04.112Z,1.40
2023-02-20T01:36:04.103Z,1.20
2023-02-20T01:37:04.096Z,1.30
2023-02-20T01:38:04.098Z,1.50
2023-02-20T01:39:04.074Z,1.10
2023-02-20T01:40:04.057Z,1.30
2023-02-20T01:41:04.076Z,1.40
2023-02-20T01:42:04.043Z,1.30
2023-02-20T01:43:04.027Z,1.40
2023-02-20T01:44:04.020Z,1.10
2023-02-20T01:45:04.013Z,1.30
2023-02-20T01:46:03.996Z,1.30
2023-02-20T01:47:03.984Z,1.10
2023-02-20T01:48:03.985Z,1.10
2023-02-20T01:49:03.965Z,1.10
2023-02-20T01:50:03.958Z,1.30
2023-02-20T01:51:03.944Z,1.20
2023-02-20T01:52:03.960Z,1.20
2023-02-20T01:53:03.910Z,1.60
2023-02-20T01:54:03.915Z,1.30
2023-02-20T01:55:03.911Z,1.40
2023-02-20T01:56:03.903Z,1.20
2023-02-20T01:57:03.894Z,1.20
2023-02-20T01:58:03.878Z,1.40
2023-02-20T01:59:03.865Z,1.20
2023-02-20T02:00:03.846Z,1.40
2023-02-20T02:01:03.896Z,1.10
2023-02-20T02:02:03.877Z,1.30
2023-02-20T02:03:03.831Z,1.30
2023-02-20T02:04:03.792Z,1.30
2023-02-20T02:05:03.800Z,1.20
2023-02-20T02:06:03.798Z,1.20
2023-02-20T02:07:03.791Z,1.10
2023-02-20T02:08:03.754Z,1.10
2023-02-20T02:09:03.765Z,1.10
2023-02-20T02:10:03.740Z,1.10
2023-02-20T02:11:03.738Z,1.20
2023-02-20T02:12:03.736Z,1.10
2023-02-20T02:13:03.713Z,1.10
2023-02-20T02:14:03.692Z,1.30
2023-02-20T02:15:03.692Z,1.30
2023-02-20T02:16:03.715Z,0.90
2023-02-20T02:17:03.679Z,1.10
2023-02-20T02:18:03.644Z,1.40
2023-02-20T02:19:03.647Z,1.00
2023-02-20T02:20:03.633Z,1.30
2023-02-20T02:21:03.618Z,1.10
2023-02-20T02:22:03.624Z,1.30
2023-02-20T02:23:03.606Z,1.00
2023-02-20T02:24:03.583Z,0.80
2023-02-20T02:25:03.580Z,1.10
2023-02-20T02:26:03.563Z,1.10
2023-02-20T02:27:03.565Z,1.10
2023-02-20T02:28:03.537Z,1.20
2023-02-20T02:29:03.560Z,1.00
2023-02-20T02:30:03.559Z,1.10
2023-02-20T02:31:03.543Z,1.10
2023-02-20T02:32:03.578Z,1.30
2023-02-20T02:33:03.484Z,1.20
2023-02-20T02:34:03.470Z,1.00
2023-02-20T02:35:03.459Z,1.00
2023-02-20T02:36:03.461Z,1.10
2023-02-20T02:37:03.458Z,1.20
2023-02-20T02:38:03.434Z,1.00
2023-02-20T02:39:03.423Z,1.10
2023-02-20T02:40:03.398Z,1.00
2023-02-20T02:41:03.431Z,1.00
2023-02-20T02:42:03.392Z,0.80
2023-02-20T02:43:03.382Z,1.10
2023-02-20T02:44:03.393Z,1.00
2023-02-20T02:45:03.357Z,0.80
2023-02-20T02:46:03.385Z,1.00
2023-02-20T02:47:03.407Z,1.20
2023-02-20T02:48:03.308Z,1.20
2023-02-20T02:49:03.317Z,1.10
2023-02-20T02:50:03.300Z,1.20
2023-02-20T02:51:03.304Z,1.10
2023-02-20T02:52:03.311Z,1.30
2023-02-20T02:53:03.265Z,1.10
2023-02-20T02:54:03.263Z,1.10
2023-02-20T02:55:03.245Z,1.30
2023-02-20T02:56:03.249Z,1.10
2023-02-20T02:57:03.256Z,1.20
2023-02-20T02:58:03.197Z,1.00
2023-02-20T02:59:03.209Z,1.50
2023-02-20T03:00:03.184Z,1.30
2023-02-20T03:01:03.274Z,1.00
2023-02-20T03:02:03.174Z,1.00
2023-02-20T03:03:03.180Z,1.10
2023-02-20T03:04:03.181Z,1.30
2023-02-20T03:05:03.142Z,1.10
2023-02-20T03:06:03.118Z,1.20
2023-02-20T03:07:03.128Z,1.20
2023-02-20T03:08:03.107Z,1.10
2023-02-20T03:09:03.095Z,1.20
2023-02-20T03:10:03.102Z,1.30
2023-02-20T03:11:03.066Z,1.10
2023-02-20T03:12:03.095Z,1.20
2023-02-20T03:13:03.057Z,1.10
2023-02-20T03:14:03.064Z,1.20
2023-02-20T03:15:03.031Z,1.20
2023-02-20T03:16:03.020Z,1.30
2023-02-20T03:17:03.029Z,1.10
2023-02-20T03:18:02.985Z,1.00
2023-02-20T03:19:02.998Z,1.30
2023-02-20T03:20:02.977Z,1.30
2023-02-20T03:21:02.977Z,1.10
2023-02-20T03:22:02.966Z,1.30
2023-02-20T03:23:02.953Z,1.40
2023-02-20T03:24:02.944Z,1.00
2023-02-20T03:25:02.927Z,1.30
2023-02-20T03:26:02.903Z,1.10
2023-02-20T03:27:02.948Z,1.20
2023-02-20T03:28:02.909Z,1.40
2023-02-20T03:29:02.873Z,1.10
2023-02-20T03:30:02.880Z,1.20
2023-02-20T03:31:02.898Z,1.20
2023-02-20T03:32:03.014Z,1.20
2023-02-20T03:33:02.836Z,1.40
2023-02-20T03:34:02.834Z,1.20
2023-02-20T03:35:02.828Z,1.10
2023-02-20T03:36:02.796Z,1.40
2023-02-20T03:37:02.829Z,1.20
2023-02-20T03:38:02.780Z,1.20
2023-02-20T03:39:02.805Z,1.20
2023-02-20T03:40:02.764Z,1.40
2023-02-20T03:41:02.765Z,1.40
2023-02-20T03:42:02.785Z,1.20
2023-02-20T03:43:02.729Z,1.50
2023-02-20T03:44:02.727Z,1.20
2023-02-20T03:45:02.768Z,1.20
2023-02-20T03:46:02.773Z,1.30
2023-02-20T03:47:02.697Z,1.20
2023-02-20T03:48:02.683Z,1.20
2023-02-20T03:49:02.681Z,1.20
2023-02-20T03:50:02.651Z,1.40
2023-02-20T03:51:02.651Z,1.40
2023-02-20T03:52:02.652Z,1.20
2023-02-20T03:53:02.627Z,1.30
2023-02-20T03:54:02.621Z,1.10
2023-02-20T03:55:02.624Z,1.30
2023-02-20T03:56:02.606Z,1.20
2023-02-20T03:57:02.594Z,1.30
2023-02-20T03:58:02.572Z,1.30
2023-02-20T03:59:02.577Z,1.30
2023-02-20T04:00:02.561Z,1.20
2023-02-20T04:01:02.636Z,1.20
2023-02-20T04:02:02.570Z,1.40
2023-02-20T04:03:02.512Z,1.30
2023-02-20T04:04:02.511Z,1.30
2023-02-20T04:05:02.497Z,1.30
2023-02-20T04:06:02.498Z,1.40
2023-02-20T04:07:02.509Z,1.30
2023-02-20T04:08:02.476Z,1.10
2023-02-20T04:09:02.454Z,1.10
2023-02-20T04:10:02.450Z,1.20
2023-02-20T04:11:02.435Z,1.40
2023-02-20T04:12:02.430Z,1.30
2023-02-20T04:13:02.428Z,1.30
2023-02-20T04:14:02.406Z,1.30
2023-02-20T04:15:02.385Z,1.30
2023-02-20T04:16:02.413Z,1.40
2023-02-20T04:17:02.391Z,1.20
2023-02-20T04:18:02.339Z,1.40
2023-02-20T04:19:02.345Z,1.20
2023-02-20T04:20:08.337Z,1.10
2023-02-20T04:21:02.341Z,1.00
2023-02-20T04:22:02.316Z,1.10
2023-02-20T04:23:02.305Z,1.20
2023-02-20T04:24:02.289Z,1.20
2023-02-20T04:25:02.300Z,1.20
2023-02-20T04:26:02.258Z,1.20
2023-02-20T04:27:02.259Z,1.10
2023-02-20T04:28:02.247Z,1.40
2023-02-20T04:29:02.258Z,1.10
2023-02-20T04:30:02.246Z,1.40
2023-02-20T04:31:02.305Z,1.10
2023-02-20T04:32:02.322Z,1.60
2023-02-20T04:33:02.256Z,1.70
2023-02-20T04:34:02.198Z,1.70
2023-02-20T04:35:02.249Z,1.30
2023-02-20T04:36:02.261Z,1.10
2023-02-20T04:37:02.234Z,1.40
2023-02-20T04:38:02.219Z,1.00
2023-02-20T04:39:02.137Z,1.60
2023-02-20T04:40:02.107Z,1.10
2023-02-20T04:41:02.099Z,1.60
2023-02-20T04:42:02.103Z,1.10
2023-02-20T04:43:02.091Z,1.20
2023-02-20T04:44:02.062Z,1.30
2023-02-20T04:45:02.069Z,1.40
2023-02-20T04:46:02.109Z,1.20
2023-02-20T04:47:02.044Z,1.50
2023-02-20T04:48:02.045Z,1.40
2023-02-20T04:49:02.028Z,1.40
2023-02-20T04:50:02.003Z,1.20
2023-02-20T04:51:03.075Z,1.50
2023-02-20T04:52:02.017Z,1.40
2023-02-20T04:53:01.977Z,1.20
2023-02-20T04:54:01.960Z,1.60
2023-02-20T04:55:01.959Z,1.40
2023-02-20T04:56:01.960Z,1.30
2023-02-20T04:57:01.958Z,1.50
2023-02-20T04:58:01.923Z,1.30
2023-02-20T04:59:01.923Z,1.30
2023-02-20T05:00:01.908Z,1.40
2023-02-20T05:01:01.898Z,1.50
2023-02-20T05:02:01.893Z,1.30
2023-02-20T05:03:01.913Z,1.10
2023-02-20T05:04:01.847Z,1.40
2023-02-20T05:05:01.861Z,1.70
2023-02-20T05:06:01.863Z,1.80
2023-02-20T05:07:01.856Z,1.80
2023-02-20T05:08:01.852Z,2.00
2023-02-20T05:09:01.814Z,2.10
2023-02-20T05:10:01.810Z,1.90
2023-02-20T05:11:01.786Z,1.90
2023-02-20T05:12:01.797Z,1.60
2023-02-20T05:13:01.778Z,1.80
2023-02-20T05:14:01.754Z,1.70
2023-02-20T05:15:01.757Z,2.00
2023-02-20T05:16:01.857Z,2.10
2023-02-20T05:17:01.748Z,2.00
2023-02-20T05:18:01.728Z,1.60
2023-02-20T05:19:01.709Z,1.60
2023-02-20T05:20:01.700Z,1.60
2023-02-20T05:21:01.691Z,1.60
2023-02-20T05:22:01.701Z,1.60
2023-02-20T05:23:01.661Z,1.50
2023-02-20T05:24:02.431Z,1.20
2023-02-20T05:25:01.648Z,1.40
2023-02-20T05:26:01.648Z,1.70
2023-02-20T05:27:01.674Z,1.60
2023-02-20T05:28:01.616Z,1.50
2023-02-20T05:29:01.603Z,1.30
2023-02-20T05:30:01.606Z,1.30
2023-02-20T05:31:01.642Z,1.30
2023-02-20T05:32:01.602Z,1.30
2023-02-20T05:33:01.587Z,1.60
2023-02-20T05:34:01.545Z,1.00
2023-02-20T05:35:01.551Z,1.20
2023-02-20T05:36:01.567Z,1.30
2023-02-20T05:37:01.538Z,1.50
2023-02-20T05:38:01.529Z,1.20
2023-02-20T05:39:01.524Z,1.40
2023-02-20T05:40:01.502Z,1.40
2023-02-20T05:41:01.485Z,1.20
2023-02-20T05:42:01.504Z,1.40
2023-02-20T05:43:01.456Z,1.30
2023-02-20T05:44:01.460Z,1.30
2023-02-20T05:45:01.468Z,1.60
2023-02-20T05:46:01.463Z,1.60
2023-02-20T05:47:01.423Z,1.50
2023-02-20T05:48:01.379Z,1.30
2023-02-20T05:49:01.364Z,1.40
2023-02-20T05:50:01.357Z,1.70
2023-02-20T05:51:01.339Z,1.40
2023-02-20T05:52:01.337Z,1.60
2023-02-20T05:53:01.397Z,1.40
2023-02-20T05:54:01.312Z,1.50
2023-02-20T05:55:01.315Z,1.30
2023-02-20T05:56:01.265Z,1.60
2023-02-20T05:57:02.245Z,1.60
2023-02-20T05:58:01.245Z,1.60
2023-02-20T05:59:01.250Z,1.50
2023-02-20T06:00:01.230Z,1.60
2023-02-20T06:01:01.231Z,1.70
2023-02-20T06:02:01.234Z,1.60
2023-02-20T06:03:01.206Z,1.40
2023-02-20T06:04:01.274Z,1.80
2023-02-20T06:05:01.289Z,1.50
2023-02-20T06:06:01.172Z,1.60
2023-02-20T06:07:01.199Z,1.60
2023-02-20T06:08:01.161Z,1.60
2023-02-20T06:09:01.143Z,1.50
2023-02-20T06:10:01.133Z,1.70
2023-02-20T06:11:01.133Z,1.60
2023-02-20T06:12:01.134Z,1.70
2023-02-20T06:13:01.122Z,1.90
2023-02-20T06:14:01.102Z,1.50
2023-02-20T06:15:01.081Z,1.60
2023-02-20T06:16:01.138Z,1.70
2023-02-20T06:17:01.074Z,1.90
2023-02-20T06:18:01.054Z,1.50
2023-02-20T06:19:01.059Z,1.80
2023-02-20T06:20:01.065Z,1.70
2023-02-20T06:21:01.043Z,1.60
2023-02-20T06:22:01.020Z,1.60
2023-02-20T06:23:00.992Z,1.90
2023-02-20T06:24:00.999Z,1.80
2023-02-20T06:25:00.977Z,1.40
2023-02-20T06:26:00.971Z,1.80
2023-02-20T06:27:00.961Z,1.60
2023-02-20T06:28:00.958Z,1.60
2023-02-20T06:29:00.938Z,1.40
2023-02-20T06:30:00.925Z,1.50
2023-02-20T06:31:02.268Z,1.60
2023-02-20T06:32:01.084Z,1.50
2023-02-20T06:33:00.889Z,1.90
2023-02-20T06:34:00.893Z,1.60
2023-02-20T06:35:00.903Z,1.60
2023-02-20T06:36:00.874Z,1.50
2023-02-20T06:37:00.887Z,1.80
2023-02-20T06:38:00.857Z,1.90
2023-02-20T06:39:00.849Z,1.70
2023-02-20T06:40:00.853Z,1.60
2023-02-20T06:41:00.808Z,1.90
2023-02-20T06:42:00.834Z,2.10
2023-02-20T06:43:00.809Z,1.80
2023-02-20T06:44:00.861Z,1.60
2023-02-20T06:45:00.823Z,2.00
2023-02-20T06:46:00.865Z,1.60
2023-02-20T06:47:00.800Z,1.50
2023-02-20T06:48:00.794Z,1.70
2023-02-20T06:49:00.739Z,2.30
2023-02-20T06:50:00.775Z,1.50
2023-02-20T06:51:00.766Z,1.60
2023-02-20T06:52:03.155Z,1.70
2023-02-20T06:53:00.692Z,1.90
2023-02-20T06:54:00.734Z,1.80
2023-02-20T06:55:00.689Z,2.20
2023-02-20T06:56:00.665Z,1.60
2023-02-20T06:57:00.676Z,1.50
2023-02-20T06:58:00.653Z,1.70
2023-02-20T06:59:00.644Z,1.60
2023-02-20T07:00:00.628Z,1.70
2023-02-20T07:01:00.712Z,1.40
2023-02-20T07:02:00.682Z,1.40
2023-02-20T07:03:00.597Z,1.50
2023-02-20T07:04:02.792Z,1.50
2023-02-20T07:05:00.582Z,1.50
2023-02-20T07:06:00.586Z,1.40
2023-02-20T07:07:00.561Z,1.50
2023-02-20T07:08:00.559Z,1.30
2023-02-20T07:09:00.548Z,1.30
2023-02-20T07:10:00.532Z,1.30
2023-02-20T07:11:00.514Z,1.60
2023-02-20T07:12:00.522Z,1.50
2023-02-20T07:13:00.494Z,1.50
2023-02-20T07:14:00.488Z,1.50
2023-02-20T07:15:00.491Z,1.30
2023-02-20T07:16:00.501Z,1.50
2023-02-20T07:17:00.474Z,1.80
2023-02-20T07:18:00.458Z,1.50
2023-02-20T07:19:00.437Z,1.90
2023-02-20T07:20:00.438Z,1.40
2023-02-20T07:21:00.419Z,1.50
2023-02-20T07:22:00.489Z,1.80
2023-02-20T07:23:00.388Z,1.60
2023-02-20T07:24:00.400Z,1.40
2023-02-20T07:25:00.381Z,1.60
2023-02-20T07:26:00.371Z,1.40
2023-02-20T07:27:00.371Z,1.50
2023-02-20T07:28:00.386Z,1.40
2023-02-20T07:29:00.384Z,1.50
2023-02-20T07:30:00.552Z,1.40
2023-02-20T07:31:00.316Z,1.80
2023-02-20T07:32:00.399Z,1.80
2023-02-20T07:33:00.286Z,1.40
2023-02-20T07:34:00.302Z,1.50
2023-02-20T07:35:05.375Z,1.40
2023-02-20T07:36:00.277Z,1.40
2023-02-20T07:37:00.253Z,1.90
2023-02-20T07:38:00.267Z,1.70
2023-02-20T07:39:00.224Z,1.60
2023-02-20T07:40:00.227Z,1.50
2023-02-20T07:41:00.204Z,1.40
2023-02-20T07:42:00.234Z,1.70
2023-02-20T07:43:00.192Z,1.20
2023-02-20T07:44:00.188Z,1.40
2023-02-20T07:45:00.179Z,1.20
2023-02-20T07:46:00.272Z,1.50
2023-02-20T07:47:00.178Z,1.70
2023-02-20T07:48:00.132Z,1.50
2023-02-20T07:49:00.120Z,1.40
2023-02-20T07:50:00.125Z,1.30
2023-02-20T07:51:00.101Z,1.30
2023-02-20T07:52:00.141Z,1.40
2023-02-20T07:53:00.099Z,1.30
2023-02-20T07:54:00.102Z,1.30
2023-02-20T07:55:00.079Z,1.40
2023-02-20T07:56:00.056Z,1.40
2023-02-20T07:57:00.032Z,1.20
2023-02-20T07:58:00.038Z,1.50
2023-02-20T07:59:01.041Z,1.20
2023-02-20T08:00:00.000Z,1.30
2023-02-20T08:00:59.979Z,1.60
2023-02-20T08:02:00.048Z,1.20
2023-02-20T08:02:59.978Z,1.50
2023-02-20T08:03:59.955Z,1.50
2023-02-20T08:04:59.958Z,1.40
2023-02-20T08:05:59.946Z,1.50
2023-02-20T08:06:59.930Z,1.30
2023-02-20T08:07:59.954Z,1.30
2023-02-20T08:08:59.896Z,1.30
2023-02-20T08:09:59.897Z,1.50
2023-02-20T08:11:08.220Z,1.30
2023-02-20T08:11:59.873Z,1.50
2023-02-20T08:12:59.874Z,1.40
2023-02-20T08:13:59.858Z,1.50
2023-02-20T08:14:59.866Z,1.70
2023-02-20T08:15:59.858Z,1.50
2023-02-20T08:16:59.823Z,1.40
2023-02-20T08:17:59.811Z,1.30
2023-02-20T08:18:59.825Z,1.40
2023-02-20T08:19:59.797Z,1.30
2023-02-20T08:20:59.772Z,1.20
2023-02-20T08:21:59.805Z,1.30
2023-02-20T08:22:59.762Z,1.50
2023-02-20T08:23:59.743Z,1.40
2023-02-20T08:24:59.726Z,1.30
2023-02-20T08:25:59.733Z,1.60
2023-02-20T08:26:59.774Z,1.60
2023-02-20T08:27:59.716Z,1.40
2023-02-20T08:28:59.749Z,1.50
2023-02-20T08:29:59.720Z,1.50
2023-02-20T08:30:59.693Z,1.30
2023-02-20T08:31:59.826Z,1.30
2023-02-20T08:32:59.658Z,1.50
2023-02-20T08:33:59.638Z,1.40
2023-02-20T08:34:59.636Z,1.30
2023-02-20T08:35:59.666Z,1.30
2023-02-20T08:36:59.620Z,1.30
2023-02-20T08:38:00.126Z,1.40
2023-02-20T08:38:59.608Z,1.80
2023-02-20T08:39:59.610Z,1.60
2023-02-20T08:40:59.555Z,1.40
2023-02-20T08:41:59.562Z,1.60
2023-02-20T08:42:59.539Z,1.20
2023-02-20T08:43:59.566Z,1.50
2023-02-20T08:44:59.608Z,1.70
2023-02-20T08:45:59.560Z,1.30
2023-02-20T08:46:59.494Z,1.30
2023-02-20T08:47:59.517Z,1.40
2023-02-20T08:48:59.502Z,1.40
2023-02-20T08:49:59.533Z,1.30
2023-02-20T08:50:59.490Z,1.50
2023-02-20T08:51:59.545Z,1.40
2023-02-20T08:52:59.491Z,1.40
2023-02-20T08:53:59.477Z,1.60
2023-02-20T08:54:59.479Z,1.30
2023-02-20T08:55:59.447Z,1.50
2023-02-20T08:56:59.449Z,1.30
2023-02-20T08:57:59.493Z,1.30
2023-02-20T08:58:59.432Z,1.50
2023-02-20T08:59:59.390Z,1.30
2023-02-20T09:00:59.458Z,1.00
2023-02-20T09:01:59.398Z,1.10
2023-02-20T09:02:59.534Z,1.10
2023-02-20T09:03:59.375Z,1.00
2023-02-20T09:04:59.339Z,1.20
2023-02-20T09:05:59.313Z,1.30
2023-02-20T09:06:59.327Z,1.00
2023-02-20T09:07:59.282Z,1.10
2023-02-20T09:08:59.272Z,0.90
2023-02-20T09:09:59.239Z,1.30
2023-02-20T09:10:59.222Z,1.10
2023-02-20T09:11:59.236Z,1.20
2023-02-20T09:12:59.245Z,1.30
2023-02-20T09:13:59.208Z,1.10
2023-02-20T09:14:59.227Z,1.10
2023-02-20T09:15:59.196Z,1.20
2023-02-20T09:16:59.182Z,1.00
2023-02-20T09:17:59.180Z,1.10
2023-02-20T09:18:59.216Z,1.30
2023-02-20T09:19:59.141Z,1.30
2023-02-20T09:20:59.119Z,1.30
2023-02-20T09:21:59.163Z,1.10
2023-02-20T09:22:59.125Z,1.30
2023-02-20T09:23:59.126Z,1.00
2023-02-20T09:24:59.092Z,1.40
2023-02-20T09:25:59.080Z,1.20
2023-02-20T09:26:59.071Z,0.90
2023-02-20T09:27:59.089Z,1.30
2023-02-20T09:28:59.066Z,1.30
2023-02-20T09:29:59.100Z,1.30
2023-02-20T09:30:59.053Z,1.00
2023-02-20T09:31:59.241Z,1.30
2023-02-20T09:32:59.050Z,1.70
2023-02-20T09:33:59.001Z,1.40
2023-02-20T09:34:59.010Z,1.10
2023-02-20T09:35:58.986Z,1.20
2023-02-20T09:36:58.960Z,1.20
2023-02-20T09:37:59.008Z,1.50
2023-02-20T09:38:58.957Z,1.20
2023-02-20T09:39:58.933Z,1.10
2023-02-20T09:40:58.924Z,1.50
2023-02-20T09:41:58.916Z,1.30
2023-02-20T09:42:58.911Z,1.30
2023-02-20T09:43:58.892Z,1.40
2023-02-20T09:44:58.898Z,1.40
2023-02-20T09:45:58.994Z,1.20
2023-02-20T09:46:58.869Z,1.20
2023-02-20T09:47:58.879Z,1.10
2023-02-20T09:48:58.835Z,1.10
2023-02-20T09:49:58.832Z,1.10
2023-02-20T09:50:58.849Z,1.40
2023-02-20T09:51:58.804Z,1.20
2023-02-20T09:52:58.806Z,1.00
2023-02-20T09:53:58.792Z,1.20
2023-02-20T09:54:58.799Z,1.00
2023-02-20T09:55:58.758Z,0.90
2023-02-20T09:56:58.763Z,1.40
2023-02-20T09:57:58.754Z,1.30
2023-02-20T09:58:58.748Z,1.10
2023-02-20T10:00:00.330Z,1.30
2023-02-20T10:00:58.788Z,1.10
2023-02-20T10:01:58.829Z,1.30
2023-02-20T10:02:58.906Z,1.20
2023-02-20T10:03:58.685Z,1.00
2023-02-20T10:05:01.651Z,1.30
2023-02-20T10:05:58.702Z,1.00
2023-02-20T10:06:58.671Z,1.20
2023-02-20T10:07:58.674Z,1.10
2023-02-20T10:08:58.629Z,1.30
2023-02-20T10:09:58.621Z,1.20
2023-02-20T10:10:58.608Z,1.20
2023-02-20T10:11:58.599Z,1.30
2023-02-20T10:12:58.594Z,1.10
2023-02-20T10:13:58.607Z,1.20
2023-02-20T10:14:58.567Z,1.10
2023-02-20T10:15:58.582Z,1.20
2023-02-20T10:16:58.577Z,1.10
2023-02-20T10:17:58.559Z,1.30
2023-02-20T10:18:58.526Z,1.10
2023-02-20T10:19:58.514Z,0.90
2023-02-20T10:20:58.534Z,0.90
2023-02-20T10:21:58.499Z,1.20
2023-02-20T10:22:58.522Z,1.30
2023-02-20T10:24:05.620Z,1.00
2023-02-20T10:24:58.469Z,1.20
2023-02-20T10:25:58.486Z,0.80
2023-02-20T10:26:58.463Z,1.20
2023-02-20T10:27:58.457Z,0.90
2023-02-20T10:28:58.458Z,1.20
2023-02-20T10:29:58.442Z,1.10
2023-02-20T10:30:58.470Z,0.90
2023-02-20T10:31:58.511Z,1.20
2023-02-20T10:32:58.414Z,1.20
2023-02-20T10:33:58.376Z,1.10
2023-02-20T10:34:58.385Z,1.20
2023-02-20T10:35:58.407Z,1.00
2023-02-20T10:36:58.333Z,1.40
2023-02-20T10:37:58.328Z,1.00
2023-02-20T10:38:58.364Z,1.20
2023-02-20T10:39:58.298Z,1.20
2023-02-20T10:40:58.314Z,1.00
2023-02-20T10:41:58.292Z,1.30
2023-02-20T10:42:58.312Z,1.10
2023-02-20T10:43:58.269Z,0.90
2023-02-20T10:44:58.275Z,1.00
2023-02-20T10:45:58.321Z,1.20
2023-02-20T10:46:58.330Z,0.90
2023-02-20T10:47:58.259Z,1.20
2023-02-20T10:48:58.224Z,0.90
2023-02-20T10:49:58.197Z,1.00
2023-02-20T10:50:58.191Z,1.20
2023-02-20T10:51:58.192Z,0.80
2023-02-20T10:52:58.182Z,1.10
2023-02-20T10:53:58.180Z,0.90
2023-02-20T10:54:58.164Z,0.90
2023-02-20T10:55:58.157Z,1.20
2023-02-20T10:56:58.136Z,1.10
2023-02-20T10:57:58.169Z,0.80
2023-02-20T10:58:58.121Z,1.10
2023-02-20T10:59:58.101Z,0.90
2023-02-20T11:00:58.096Z,0.90
2023-02-20T11:01:58.209Z,1.10
2023-02-20T11:02:58.098Z,0.80
2023-02-20T11:03:58.059Z,1.00
2023-02-20T11:04:58.035Z,0.80
2023-02-20T11:05:58.078Z,1.00
2023-02-20T11:06:58.056Z,1.00
2023-02-20T11:07:58.043Z,1.00
2023-02-20T11:08:58.050Z,1.10
2023-02-20T11:09:57.978Z,1.00
2023-02-20T11:10:58.034Z,1.00
2023-02-20T11:11:57.987Z,0.80
2023-02-20T11:12:57.994Z,1.00
2023-02-20T11:13:57.934Z,1.00
2023-02-20T11:14:57.952Z,0.80
2023-02-20T11:15:57.947Z,0.90
2023-02-20T11:16:57.980Z,0.90
2023-02-20T11:17:57.944Z,0.80
2023-02-20T11:18:57.902Z,0.70
2023-02-20T11:19:57.879Z,0.70
2023-02-20T11:20:57.868Z,1.00
2023-02-20T11:21:57.875Z,0.80
2023-02-20T11:22:57.886Z,0.80
2023-02-20T11:23:57.881Z,0.70
2023-02-20T11:24:57.833Z,0.80
2023-02-20T11:25:57.822Z,0.70
2023-02-20T11:26:57.821Z,0.60
2023-02-20T11:27:57.858Z,0.70
2023-02-20T11:28:57.825Z,0.70
2023-02-20T11:29:57.785Z,0.60
2023-02-20T11:30:57.849Z,0.70
2023-02-20T11:31:58.029Z,0.70
2023-02-20T11:32:57.767Z,0.50
2023-02-20T11:33:57.735Z,0.60
2023-02-20T11:34:57.750Z,0.70
2023-02-20T11:35:57.718Z,0.50
2023-02-20T11:36:57.721Z,0.50
2023-02-20T11:37:57.767Z,0.60
2023-02-20T11:38:57.750Z,0.60
2023-02-20T11:39:57.682Z,0.70
2023-02-20T11:40:57.667Z,0.70
2023-02-20T11:41:57.655Z,0.40
2023-02-20T11:42:57.664Z,0.50
2023-02-20T11:44:01.675Z,0.50
2023-02-20T11:44:57.627Z,0.50
2023-02-20T11:45:57.669Z,0.50
2023-02-20T11:46:57.619Z,0.50
2023-02-20T11:47:57.614Z,0.40
2023-02-20T11:48:57.595Z,0.70
2023-02-20T11:49:58.165Z,0.60
2023-02-20T11:50:57.577Z,0.50
2023-02-20T11:51:57.550Z,0.50
2023-02-20T11:52:57.565Z,0.50
2023-02-20T11:53:57.560Z,0.50
2023-02-20T11:54:57.528Z,0.40
2023-02-20T11:56:00.326Z,0.40
2023-02-20T11:56:57.538Z,0.50
2023-02-20T11:57:57.522Z,0.70
2023-02-20T11:58:57.537Z,0.60
2023-02-20T11:59:57.476Z,0.50
2023-02-20T12:00:57.470Z,0.30
2023-02-20T12:02:01.188Z,0.40
2023-02-20T12:02:57.512Z,0.60
2023-02-20T12:03:57.538Z,0.40
2023-02-20T12:04:57.437Z,0.40
2023-02-20T12:05:57.495Z,0.60
2023-02-20T12:06:57.409Z,0.60
2023-02-20T12:07:57.432Z,0.50
2023-02-20T12:08:57.404Z,0.50
2023-02-20T12:09:57.357Z,0.50
2023-02-20T12:10:57.342Z,0.40
2023-02-20T12:11:57.355Z,0.40
2023-02-20T12:12:57.361Z,0.50
2023-02-20T12:13:57.315Z,0.50
2023-02-20T12:14:57.315Z,0.40
2023-02-20T12:15:57.318Z,0.60
2023-02-20T12:16:57.285Z,0.60
2023-02-20T12:17:57.311Z,0.60
2023-02-20T12:18:57.292Z,0.50
2023-02-20T12:19:57.264Z,0.50
2023-02-20T12:20:57.249Z,0.50
2023-02-20T12:21:57.234Z,0.40
2023-02-20T12:22:57.230Z,0.60
2023-02-20T12:23:57.197Z,0.50
2023-02-20T12:24:57.244Z,0.50
2023-02-20T12:25:57.206Z,0.50
2023-02-20T12:26:57.215Z,0.60
2023-02-20T12:27:57.168Z,0.60
2023-02-20T12:28:57.167Z,0.30
2023-02-20T12:29:57.138Z,0.50
2023-02-20T12:30:57.142Z,0.50
2023-02-20T12:31:57.256Z,0.40
2023-02-20T12:32:57.149Z,0.90
2023-02-20T12:33:57.121Z,1.30
2023-02-20T12:34:57.105Z,0.70
2023-02-20T12:35:57.094Z,0.50
2023-02-20T12:36:57.084Z,0.60
2023-02-20T12:37:57.059Z,0.70
2023-02-20T12:38:57.046Z,0.80
2023-02-20T12:39:57.056Z,0.60
2023-02-20T12:40:57.021Z,0.30
2023-02-20T12:41:57.350Z,0.40
2023-02-20T12:42:57.019Z,0.50
2023-02-20T12:44:11.417Z,0.30
2023-02-20T12:44:56.994Z,0.40
2023-02-20T12:45:56.981Z,0.30
2023-02-20T12:46:57.018Z,0.70
2023-02-20T12:47:57.005Z,0.50
2023-02-20T12:48:56.951Z,0.60
2023-02-20T12:49:56.933Z,0.70
2023-02-20T12:50:56.946Z,0.30
2023-02-20T12:51:56.920Z,0.40
2023-02-20T12:52:56.920Z,0.50
2023-02-20T12:53:56.879Z,0.50
2023-02-20T12:54:56.879Z,0.70
2023-02-20T12:55:56.871Z,0.70
2023-02-20T12:56:56.872Z,0.90
2023-02-20T12:57:56.860Z,0.80
2023-02-20T12:58:56.845Z,0.70
2023-02-20T12:59:56.931Z,0.80
2023-02-20T13:00:56.826Z,0.70
2023-02-20T13:01:56.813Z,1.00
2023-02-20T13:02:56.818Z,1.30
2023-02-20T13:03:56.816Z,1.80
2023-02-20T13:04:56.785Z,1.00
2023-02-20T13:05:56.776Z,0.80
2023-02-20T13:06:56.762Z,1.10
2023-02-20T13:07:56.749Z,1.10
2023-02-20T13:08:56.729Z,1.50
2023-02-20T13:09:56.728Z,1.20
2023-02-20T13:10:56.732Z,1.00
2023-02-20T13:11:56.707Z,0.50
2023-02-20T13:12:56.713Z,0.50
2023-02-20T13:13:56.679Z,0.50
2023-02-20T13:14:56.681Z,0.60
2023-02-20T13:15:56.704Z,0.70
2023-02-20T13:16:56.684Z,2.00
2023-02-20T13:17:56.658Z,1.00